Time;durP1;ratioP1;P1;durP2;ratioP2;P2;SDS_P1;SDS_P2;PMS_P1;PMS_P2;Temp;Humidity;BMP_temperature;BMP_pressure;BME280_temperature;BME280_humidity;BME280_pressure;Samples;Min_cycle;Max_cycle;Signal;HPM_P1;HPM_P2
2023/09/03 00:02:12;;;;;;;6.15;2.08;;;;;;;16.39;62.33;101220.81;5023491;28;20033;-43
2023/09/03 00:04:39;;;;;;;4.93;2.53;;;;;;;16.37;62.60;101216.44;5024270;28;20046;-47
2023/09/03 00:07:05;;;;;;;4.10;2.17;;;;;;;16.33;63.24;101218.22;5024465;28;20056;-46
2023/09/03 00:09:33;;;;;;;6.00;2.72;;;;;;;16.30;62.81;101213.03;5020999;28;20419;-51
2023/09/03 00:12:00;;;;;;;8.30;2.20;;;;;;;16.25;62.91;101223.50;5021935;28;20061;-49
2023/09/03 00:14:27;;;;;;;7.47;2.67;;;;;;;16.22;62.79;101217.44;5015479;28;20045;-51
2023/09/03 00:16:54;;;;;;;8.80;3.95;;;;;;;16.16;63.18;101214.00;5017822;28;20423;-47
2023/09/03 00:19:20;;;;;;;4.85;2.90;;;;;;;16.14;62.89;101215.75;5006457;28;20046;-47
2023/09/03 00:21:47;;;;;;;8.27;2.30;;;;;;;16.11;63.52;101210.53;5003304;28;20061;-45
2023/09/03 00:24:14;;;;;;;4.72;1.98;;;;;;;16.10;63.67;101213.16;5004682;28;20045;-47
2023/09/03 00:26:41;;;;;;;4.68;2.28;;;;;;;16.08;63.15;101218.44;4997798;28;20058;-46
2023/09/03 00:29:07;;;;;;;4.88;2.00;;;;;;;16.06;63.26;101213.22;4997793;28;20050;-46
2023/09/03 00:31:34;;;;;;;4.70;2.25;;;;;;;16.04;63.29;101212.34;4999584;28;20046;-51
2023/09/03 00:34:01;;;;;;;4.60;2.10;;;;;;;16.04;63.35;101214.06;5003179;28;20742;-48
2023/09/03 00:36:27;;;;;;;7.20;2.35;;;;;;;16.02;63.37;101202.78;4996028;28;20049;-50
2023/09/03 00:38:54;;;;;;;6.82;2.92;;;;;;;16.01;63.78;101198.44;5004329;28;20100;-45
2023/09/03 00:41:21;;;;;;;4.93;2.05;;;;;;;15.98;64.11;101199.34;5003326;28;20045;-51
2023/09/03 00:43:48;;;;;;;5.53;2.30;;;;;;;15.94;63.98;101195.81;5000727;28;20049;-45
2023/09/03 00:46:14;;;;;;;6.65;2.38;;;;;;;15.94;64.07;101201.06;5002809;28;20053;-48
2023/09/03 00:48:42;;;;;;;5.63;2.47;;;;;;;15.93;64.76;101195.84;4996727;28;20053;-50
2023/09/03 00:51:10;;;;;;;3.95;2.28;;;;;;;15.91;64.03;101198.44;4999692;28;20053;-52
2023/09/03 00:53:40;;;;;;;4.78;2.33;;;;;;;15.89;63.99;101200.22;5005170;28;20054;-46
2023/09/03 00:56:08;;;;;;;5.20;2.45;;;;;;;15.85;64.17;101193.28;5005095;28;20057;-48
2023/09/03 00:58:35;;;;;;;5.70;2.13;;;;;;;15.84;64.14;101199.38;4996745;28;20148;-47
2023/09/03 01:01:04;;;;;;;5.53;2.28;;;;;;;15.81;64.29;101186.34;4993321;28;20095;-50
2023/09/03 01:03:32;;;;;;;7.10;2.70;;;;;;;15.77;63.90;101187.25;4995734;28;20050;-51
2023/09/03 01:05:59;;;;;;;5.03;2.35;;;;;;;15.74;64.43;101184.66;4993507;28;20050;-46
2023/09/03 01:08:27;;;;;;;5.45;2.53;;;;;;;15.71;64.11;101185.53;4993718;28;20049;-44
2023/09/03 01:11:34;;;;;;;6.15;3.75;;;;;;;15.60;64.57;101187.34;4992885;28;20489;-47
2023/09/03 01:16:56;;;;;;;5.07;3.03;;;;;;;15.59;64.59;101181.25;5096848;27;20929;-48
2023/09/03 01:30:08;;;;;;;6.18;2.72;;;;;;;15.54;65.07;101203.91;5053054;27;20985;-46
2023/09/03 01:32:37;;;;;;;5.45;2.72;;;;;;;15.54;64.79;101211.75;5027016;28;20049;-48
2023/09/03 01:35:06;;;;;;;6.57;2.53;;;;;;;15.52;64.83;101213.47;5033242;28;20771;-50
2023/09/03 01:37:32;;;;;;;7.60;3.00;;;;;;;15.50;64.94;101218.69;5018023;28;20049;-48
2023/09/03 01:39:59;;;;;;;6.55;3.03;;;;;;;15.50;65.10;101217.84;5022967;28;20660;-48
2023/09/03 01:42:26;;;;;;;7.88;2.97;;;;;;;15.49;65.15;101223.94;5017233;28;20042;-53
2023/09/03 01:44:53;;;;;;;7.70;2.85;;;;;;;15.50;65.04;101223.06;5021844;28;20054;-49
2023/09/03 01:47:32;;;;;;;6.78;2.88;;;;;;;15.47;65.17;101223.09;5018108;28;20057;-48
2023/09/03 01:52:49;;;;;;;6.38;2.72;;;;;;;15.40;65.06;101222.25;5056863;28;20393;-48
2023/09/03 01:55:18;;;;;;;6.28;3.42;;;;;;;15.36;65.25;101216.16;5009187;28;20130;-52
2023/09/03 01:57:50;;;;;;;8.77;3.65;;;;;;;15.32;64.89;101227.47;5027837;28;20056;-46
2023/09/03 02:00:18;;;;;;;6.38;3.05;;;;;;;15.27;64.79;101221.41;5027780;28;20052;-46
2023/09/03 02:02:48;;;;;;;7.50;4.38;;;;;;;15.24;65.41;101231.88;5021249;28;20418;-49
2023/09/03 02:05:15;;;;;;;7.88;2.95;;;;;;;15.18;65.07;101224.91;5017223;28;20053;-48
2023/09/03 02:07:42;;;;;;;8.18;3.15;;;;;;;15.12;65.36;101233.63;5018231;28;20073;-48
2023/09/03 02:10:10;;;;;;;4.88;2.92;;;;;;;15.09;64.72;101238.84;5020349;28;20077;-47
2023/09/03 02:12:36;;;;;;;11.05;3.78;;;;;;;15.06;65.07;101238.84;5025418;28;20049;-48
2023/09/03 02:15:03;;;;;;;6.03;2.58;;;;;;;15.04;65.56;101228.41;5023293;28;20736;-46
2023/09/03 02:17:30;;;;;;;8.45;3.25;;;;;;;15.01;65.48;101224.97;5023111;28;20054;-45
2023/09/03 02:19:57;;;;;;;7.20;3.25;;;;;;;14.99;65.83;101231.91;5022923;28;20053;-48
2023/09/03 02:22:24;;;;;;;5.95;3.38;;;;;;;14.97;65.86;101233.66;5034153;28;20209;-47
2023/09/03 02:24:51;;;;;;;9.93;4.20;;;;;;;14.95;65.11;101222.34;5015806;28;20050;-47
2023/09/03 02:27:17;;;;;;;10.18;4.05;;;;;;;14.95;65.68;101224.97;5020126;28;20049;-48
2023/09/03 02:29:44;;;;;;;7.13;3.30;;;;;;;14.94;65.55;101218.03;5021772;28;20053;-48
2023/09/03 02:32:11;;;;;;;7.30;4.00;;;;;;;14.93;65.98;101204.09;5022513;28;20037;-50
2023/09/03 02:34:38;;;;;;;5.05;3.17;;;;;;;14.93;65.77;101211.06;5009497;28;20052;-50
2023/09/03 02:37:05;;;;;;;6.88;3.35;;;;;;;14.91;65.96;101203.25;5020172;28;20045;-48
2023/09/03 02:39:32;;;;;;;8.68;3.92;;;;;;;14.90;65.88;101207.59;5012799;28;20050;-48
2023/09/03 02:41:59;;;;;;;6.95;3.10;;;;;;;14.90;65.89;101207.59;5012732;28;20060;-51
2023/09/03 02:44:26;;;;;;;6.63;4.60;;;;;;;14.89;66.02;101216.28;5009097;28;20996;-44
2023/09/03 02:46:52;;;;;;;10.27;4.45;;;;;;;14.87;66.12;101228.47;5017075;28;20052;-48
2023/09/03 02:49:20;;;;;;;8.30;3.88;;;;;;;14.84;66.27;101231.09;5022296;28;20057;-48
2023/09/03 02:51:47;;;;;;;13.70;4.57;;;;;;;14.78;66.38;101221.53;5022196;28;20037;-51
2023/09/03 02:54:13;;;;;;;11.48;5.40;;;;;;;14.75;66.23;101228.44;5020254;28;20107;-47
2023/09/03 02:56:40;;;;;;;7.97;4.05;;;;;;;14.72;66.48;101226.72;5021361;28;20050;-48
2023/09/03 02:59:07;;;;;;;7.53;3.92;;;;;;;14.72;66.31;101228.44;5019049;28;20069;-49
2023/09/03 03:01:33;;;;;;;11.10;4.47;;;;;;;14.73;66.92;101230.19;5021303;28;20049;-48
2023/09/03 03:04:01;;;;;;;12.18;5.45;;;;;;;14.72;66.30;101234.53;5002633;28;20056;-46
2023/09/03 03:06:27;;;;;;;13.60;5.30;;;;;;;14.73;66.93;101238.03;5006574;28;20065;-44
2023/09/03 03:08:54;;;;;;;10.77;5.18;;;;;;;14.74;66.85;101238.03;5009900;28;20045;-47
2023/09/03 03:11:23;;;;;;;10.43;4.82;;;;;;;14.74;66.75;101232.81;5009218;28;20045;-52
2023/09/03 03:13:51;;;;;;;12.52;5.47;;;;;;;14.75;67.25;101233.66;5012188;28;20542;-46
2023/09/03 03:16:18;;;;;;;11.18;5.55;;;;;;;14.73;67.13;101235.41;5008504;28;20083;-48
2023/09/03 03:18:46;;;;;;;11.52;5.25;;;;;;;14.71;67.00;101239.75;5007413;28;20053;-47
2023/09/03 03:21:16;;;;;;;15.05;5.90;;;;;;;14.69;67.11;101233.69;5001034;28;20044;-51
2023/09/03 03:23:47;;;;;;;11.90;5.10;;;;;;;14.68;67.27;101231.91;5006723;28;20061;-51
2023/09/03 03:26:14;;;;;;;9.75;5.18;;;;;;;14.69;67.26;101233.69;5008510;28;20058;-44
2023/09/03 03:28:41;;;;;;;9.15;4.95;;;;;;;14.70;67.09;101240.63;5003272;28;20042;-50
2023/09/03 03:31:10;;;;;;;8.93;4.38;;;;;;;14.70;67.71;101227.59;5006384;28;20042;-49
2023/09/03 03:33:39;;;;;;;14.18;6.70;;;;;;;14.70;67.18;101224.97;5008482;28;20558;-47
2023/09/03 03:36:07;;;;;;;14.13;6.10;;;;;;;14.69;67.54;101229.31;5008491;28;20049;-50
2023/09/03 03:38:34;;;;;;;13.63;7.45;;;;;;;14.67;67.75;101225.84;5009160;28;20608;-45
2023/09/03 03:41:13;;;;;;;14.77;6.00;;;;;;;14.62;67.45;101223.25;5004357;28;20057;-46
2023/09/03 03:43:42;;;;;;;12.95;6.35;;;;;;;14.61;67.77;101226.72;5004757;28;20499;-52
2023/09/03 03:46:10;;;;;;;15.85;6.85;;;;;;;14.60;68.01;101234.56;5000351;28;20562;-44
2023/09/03 03:48:37;;;;;;;15.02;6.05;;;;;;;14.59;68.22;101233.66;5003362;28;20049;-48
2023/09/03 03:51:04;;;;;;;11.02;4.90;;;;;;;14.59;68.08;101236.28;5001618;28;20038;-47
2023/09/03 03:53:30;;;;;;;10.60;5.43;;;;;;;14.59;68.38;101244.09;5001440;28;20050;-50
2023/09/03 03:56:07;;;;;;;10.60;5.20;;;;;;;14.56;68.01;101236.28;5008157;28;20054;-49
2023/09/03 03:58:36;;;;;;;12.27;5.43;;;;;;;14.59;68.21;101233.66;4999309;28;20048;-48
2023/09/03 04:03:49;;;;;;;13.15;6.43;;;;;;;14.59;68.00;101232.81;5021382;27;20422;-46
2023/09/03 04:06:17;;;;;;;11.27;5.80;;;;;;;14.58;68.45;101233.66;5026942;28;20410;-47
2023/09/03 04:08:43;;;;;;;14.48;7.88;;;;;;;14.57;68.37;101243.25;5039135;28;20463;-46
2023/09/03 04:11:12;;;;;;;19.38;8.73;;;;;;;14.57;67.92;101240.63;5029997;28;20155;-50
2023/09/03 04:13:39;;;;;;;16.60;7.93;;;;;;;14.58;68.61;101236.28;5062202;28;20067;-49
2023/09/03 04:16:08;;;;;;;14.55;6.80;;;;;;;14.59;68.30;101236.28;5035058;28;20754;-47
2023/09/03 04:18:36;;;;;;;18.75;9.63;;;;;;;14.59;68.41;101238.03;5066157;28;20037;-49
2023/09/03 04:21:03;;;;;;;20.58;11.10;;;;;;;14.59;68.81;101236.28;5034806;28;20053;-52
2023/09/03 04:23:30;;;;;;;17.23;8.82;;;;;;;14.59;69.29;101244.09;5055848;28;20048;-48
2023/09/03 04:25:56;;;;;;;13.55;5.97;;;;;;;14.59;68.55;101243.25;5034507;28;20419;-48
2023/09/03 04:28:23;;;;;;;13.48;6.95;;;;;;;14.56;68.53;101244.09;5037021;28;20037;-48
2023/09/03 04:30:56;;;;;;;14.90;7.13;;;;;;;14.48;68.64;101240.63;5032483;28;20081;-52
2023/09/03 04:33:23;;;;;;;12.50;7.15;;;;;;;14.46;67.82;101250.19;5065061;28;20042;-48
2023/09/03 04:35:59;;;;;;;13.20;8.32;;;;;;;14.40;68.08;101238.88;5036135;28;20049;-45
2023/09/03 04:38:27;;;;;;;19.67;8.52;;;;;;;14.42;68.55;101245.84;5035110;28;21039;-45
2023/09/03 04:40:55;;;;;;;16.05;8.60;;;;;;;14.40;68.54;101244.09;5035823;28;20081;-48
2023/09/03 04:43:23;;;;;;;16.52;8.40;;;;;;;14.38;68.65;101251.06;5034329;28;20068;-48
2023/09/03 04:45:52;;;;;;;16.50;8.93;;;;;;;14.36;68.33;101250.16;5036355;28;20042;-46
2023/09/03 04:48:20;;;;;;;16.52;8.60;;;;;;;14.33;68.86;101247.59;5037955;28;20080;-48
2023/09/03 04:50:47;;;;;;;16.08;8.55;;;;;;;14.32;68.74;101245.81;5031615;28;20126;-50
2023/09/03 04:53:15;;;;;;;18.45;8.93;;;;;;;14.33;68.70;101247.59;5035086;28;20054;-45
2023/09/03 04:55:41;;;;;;;19.02;10.30;;;;;;;14.34;68.85;101249.31;5033865;28;20049;-47
2023/09/03 04:58:08;;;;;;;21.15;9.95;;;;;;;14.33;68.85;101247.59;5031140;28;20065;-48
2023/09/03 05:00:36;;;;;;;17.77;9.52;;;;;;;14.34;68.61;101244.09;5026993;28;20045;-46
2023/09/03 05:03:04;;;;;;;21.10;10.35;;;;;;;14.33;68.79;101247.59;5026779;28;20049;-46
2023/09/03 05:05:39;;;;;;;21.95;10.40;;;;;;;14.31;69.14;101238.88;5023686;28;20431;-48
2023/09/03 05:08:07;;;;;;;26.58;11.60;;;;;;;14.32;69.14;101245.81;5029042;28;20102;-47
2023/09/03 05:10:34;;;;;;;86.47;11.68;;;;;;;14.31;69.28;101249.31;5034552;28;20495;-47
2023/09/03 05:13:04;;;;;;;61.22;10.43;;;;;;;14.30;69.28;101236.28;5026723;28;20049;-48
2023/09/03 05:15:31;;;;;;;20.50;9.32;;;;;;;14.28;69.24;101244.09;5016059;28;20049;-45
2023/09/03 05:18:01;;;;;;;23.08;10.57;;;;;;;14.28;69.09;101244.09;5019007;28;20058;-51
2023/09/03 05:20:28;;;;;;;21.95;10.85;;;;;;;14.25;69.42;101250.16;5011358;28;20144;-47
2023/09/03 05:22:54;;;;;;;29.98;10.68;;;;;;;14.25;69.13;101244.06;5018062;28;20042;-47
2023/09/03 05:25:21;;;;;;;27.20;9.38;;;;;;;14.24;68.93;101258.88;5015641;28;20434;-49
2023/09/03 05:27:48;;;;;;;22.90;10.25;;;;;;;14.24;69.36;101258.88;5020673;28;20049;-47
2023/09/03 05:30:15;;;;;;;19.73;11.88;;;;;;;14.23;69.42;101261.47;5013548;28;20054;-45
2023/09/03 05:32:42;;;;;;;24.58;10.35;;;;;;;14.24;69.74;101263.19;5015111;28;20175;-52
2023/09/03 05:35:09;;;;;;;22.63;10.52;;;;;;;14.25;69.87;101257.09;5022255;28;20049;-51
2023/09/03 05:37:36;;;;;;;24.42;11.27;;;;;;;14.27;69.67;101268.41;5022133;28;20053;-47
2023/09/03 05:40:04;;;;;;;27.77;10.65;;;;;;;14.28;69.68;101264.94;5018500;28;20056;-47
2023/09/03 05:42:31;;;;;;;25.70;13.43;;;;;;;14.31;70.08;101267.56;5011466;28;20132;-46
2023/09/03 05:44:59;;;;;;;26.20;11.98;;;;;;;14.32;70.36;101261.47;5017675;28;20045;-48
2023/09/03 05:47:25;;;;;;;22.40;10.13;;;;;;;14.34;70.12;101257.13;5014731;28;20137;-45
2023/09/03 05:49:54;;;;;;;26.10;10.63;;;;;;;14.36;69.69;101262.34;5015665;28;20045;-46
2023/09/03 05:52:21;;;;;;;17.40;9.50;;;;;;;14.37;69.90;101254.53;5018430;28;20056;-47
2023/09/03 05:54:48;;;;;;;17.25;8.15;;;;;;;14.38;70.04;101256.28;5018937;28;20053;-49
2023/09/03 05:57:14;;;;;;;14.95;7.55;;;;;;;14.40;69.59;101257.13;5012061;28;20056;-48
2023/09/03 05:59:41;;;;;;;14.77;8.35;;;;;;;14.42;69.49;101261.50;5016206;28;20075;-48
2023/09/03 06:02:08;;;;;;;15.10;8.60;;;;;;;14.43;70.02;101271.91;5017871;28;20100;-49
2023/09/03 06:04:35;;;;;;;14.88;7.45;;;;;;;14.44;70.34;101276.25;5015116;28;20601;-52
2023/09/03 06:07:04;;;;;;;12.88;7.35;;;;;;;14.46;69.88;101278.88;5014151;28;21950;-50
2023/09/03 06:09:31;;;;;;;30.88;9.23;;;;;;;14.49;70.56;101284.09;5003832;28;20169;-48
2023/09/03 06:11:57;;;;;;;17.17;8.80;;;;;;;14.53;70.05;101288.44;5011431;28;20129;-48
2023/09/03 06:14:24;;;;;;;16.05;8.68;;;;;;;14.54;69.82;101284.94;5016284;28;20415;-45
2023/09/03 06:16:51;;;;;;;15.30;8.85;;;;;;;14.57;69.92;101277.13;5016490;28;20061;-48
2023/09/03 06:19:18;;;;;;;22.52;8.80;;;;;;;14.61;69.78;101284.09;5011826;28;20193;-51
2023/09/03 06:21:45;;;;;;;17.98;8.10;;;;;;;14.62;70.04;101285.81;5011897;28;20046;-48
2023/09/03 06:24:12;;;;;;;12.93;7.72;;;;;;;14.64;70.04;101286.72;5015500;28;20136;-52
2023/09/03 06:26:39;;;;;;;13.30;7.95;;;;;;;14.68;70.22;101294.50;5009817;28;20060;-46
2023/09/03 06:29:05;;;;;;;12.73;7.35;;;;;;;14.70;69.70;101283.22;5008652;28;20049;-46
2023/09/03 06:31:32;;;;;;;17.38;8.57;;;;;;;14.75;70.15;101280.59;5013353;28;20156;-47
2023/09/03 06:33:59;;;;;;;12.30;8.10;;;;;;;14.78;69.78;101285.84;5008768;28;20605;-50
2023/09/03 06:36:26;;;;;;;13.93;8.45;;;;;;;14.82;70.23;101295.41;5012870;28;20046;-48
2023/09/03 06:38:52;;;;;;;11.38;6.95;;;;;;;14.87;70.02;101296.28;5013824;28;20064;-51
2023/09/03 06:41:19;;;;;;;12.48;7.53;;;;;;;14.92;69.61;101292.81;5013363;28;20064;-48
2023/09/03 06:43:46;;;;;;;11.10;7.20;;;;;;;14.96;69.95;101299.75;5017835;28;20057;-49
2023/09/03 06:46:13;;;;;;;15.20;8.60;;;;;;;15.02;69.61;101297.13;5014687;28;20053;-46
2023/09/03 06:48:39;;;;;;;14.00;7.88;;;;;;;15.08;69.54;101294.53;5020724;28;20148;-49
2023/09/03 06:51:06;;;;;;;17.02;8.68;;;;;;;15.16;69.82;101298.00;5022161;28;20037;-46
2023/09/03 06:53:33;;;;;;;15.45;9.23;;;;;;;15.27;69.96;101302.31;5019288;28;20462;-49
2023/09/03 06:55:59;;;;;;;14.93;8.45;;;;;;;15.38;70.04;101303.16;5014590;28;20061;-47
2023/09/03 06:58:26;;;;;;;13.35;7.70;;;;;;;15.50;70.25;101301.41;5012645;28;20052;-47
2023/09/03 07:00:53;;;;;;;15.43;7.03;;;;;;;15.63;70.50;101308.31;5013428;28;20743;-48
2023/09/03 07:03:22;;;;;;;17.58;9.15;;;;;;;15.82;70.39;101313.47;5021821;28;20046;-49
2023/09/03 07:05:48;;;;;;;12.82;6.60;;;;;;;16.16;70.34;101317.66;5014135;28;20643;-47
2023/09/03 07:08:15;;;;;;;14.65;7.68;;;;;;;16.51;69.82;101319.19;5009569;28;20053;-46
2023/09/03 07:10:42;;;;;;;10.45;6.75;;;;;;;16.90;69.95;101310.16;5017343;28;20049;-50
2023/09/03 07:13:10;;;;;;;16.45;8.80;;;;;;;17.32;69.09;101318.50;5017404;28;20064;-45
2023/09/03 07:15:37;;;;;;;19.33;10.13;;;;;;;17.73;68.43;101318.91;5014411;28;20049;-51
2023/09/03 07:18:04;;;;;;;17.25;10.05;;;;;;;18.14;67.97;101318.44;5021018;28;20077;-49
2023/09/03 07:20:31;;;;;;;14.13;8.85;;;;;;;18.50;67.40;101316.16;5021711;28;20743;-45
2023/09/03 07:22:58;;;;;;;13.52;6.97;;;;;;;18.86;67.13;101319.97;5015023;28;20454;-52
2023/09/03 07:25:25;;;;;;;15.43;8.32;;;;;;;19.23;66.85;101323.72;5016362;28;20060;-51
2023/09/03 07:27:52;;;;;;;12.48;8.25;;;;;;;19.50;66.20;101319.69;5016678;28;20060;-54
2023/09/03 07:30:18;;;;;;;9.57;5.95;;;;;;;19.74;65.93;101320.09;5008843;28;20045;-46
2023/09/03 07:32:45;;;;;;;10.98;6.28;;;;;;;20.00;65.82;101316.03;5012086;28;20132;-49
2023/09/03 07:35:12;;;;;;;11.20;7.03;;;;;;;20.28;64.94;101322.47;5012762;28;20103;-47
2023/09/03 07:37:39;;;;;;;10.55;6.47;;;;;;;20.62;64.35;101319.03;5020022;28;20045;-50
2023/09/03 07:40:06;;;;;;;13.27;7.57;;;;;;;21.06;63.92;101321.47;4997866;28;20062;-48
2023/09/03 07:42:33;;;;;;;11.10;5.95;;;;;;;21.54;63.12;101315.75;4985624;28;20397;-52
2023/09/03 07:45:00;;;;;;;10.05;6.53;;;;;;;22.05;62.88;101319.56;4997741;28;20054;-51
2023/09/03 07:47:26;;;;;;;18.63;9.23;;;;;;;22.53;62.29;101314.53;4993439;28;20056;-50
2023/09/03 07:49:53;;;;;;;12.45;7.70;;;;;;;23.00;61.89;101326.22;4995366;28;20436;-48
2023/09/03 07:52:20;;;;;;;12.23;7.30;;;;;;;23.43;60.36;101330.94;4992228;28;20053;-47
2023/09/03 07:54:47;;;;;;;12.23;7.65;;;;;;;23.79;60.04;101327.84;4997611;28;20050;-52
2023/09/03 07:57:13;;;;;;;12.68;7.95;;;;;;;24.01;58.74;101329.66;4991147;28;20058;-50
2023/09/03 07:59:40;;;;;;;14.15;8.65;;;;;;;24.22;58.44;101327.13;4999121;28;20061;-48
2023/09/03 08:02:07;;;;;;;13.88;9.57;;;;;;;24.45;58.04;101333.28;4998291;28;20184;-47
2023/09/03 08:04:33;;;;;;;13.65;9.75;;;;;;;24.68;57.06;101328.81;4993907;28;20046;-49
2023/09/03 08:07:01;;;;;;;14.63;9.18;;;;;;;24.88;57.29;101342.09;4998294;28;20491;-47
2023/09/03 08:09:29;;;;;;;16.38;9.18;;;;;;;25.07;56.67;101333.34;4997572;28;20050;-52
2023/09/03 08:11:55;;;;;;;19.45;10.30;;;;;;;25.29;56.43;101335.03;4990142;28;20046;-51
2023/09/03 08:14:24;;;;;;;19.08;11.13;;;;;;;25.51;55.85;101342.03;4989621;28;20046;-51
2023/09/03 08:16:51;;;;;;;19.55;11.38;;;;;;;25.83;56.24;101341.53;4991997;28;20054;-50
2023/09/03 08:19:18;;;;;;;17.52;10.10;;;;;;;26.17;55.35;101342.56;4987755;28;20575;-47
2023/09/03 08:21:45;;;;;;;22.02;11.77;;;;;;;26.46;55.26;101339.44;4994343;28;20479;-50
2023/09/03 08:24:11;;;;;;;21.17;11.52;;;;;;;26.75;54.13;101339.78;4984480;28;20047;-51
2023/09/03 08:26:38;;;;;;;18.42;11.43;;;;;;;27.10;54.30;101331.81;4996590;28;20042;-46
2023/09/03 08:29:05;;;;;;;21.08;11.70;;;;;;;27.48;53.74;101335.19;4990476;28;20112;-48
2023/09/03 08:31:32;;;;;;;15.85;9.30;;;;;;;27.89;52.62;101342.72;4989889;28;20728;-50
2023/09/03 08:33:59;;;;;;;18.73;9.90;;;;;;;28.31;53.08;101336.88;4988548;28;20073;-48
2023/09/03 08:36:25;;;;;;;19.15;11.15;;;;;;;28.72;52.03;101333.59;4993312;28;20072;-50
2023/09/03 08:38:53;;;;;;;19.05;11.02;;;;;;;29.11;50.83;101333.13;4993777;28;20919;-49
2023/09/03 08:41:21;;;;;;;15.02;10.00;;;;;;;29.41;49.72;101332.16;4987564;28;20042;-51
2023/09/03 08:43:50;;;;;;;17.17;9.48;;;;;;;29.75;48.88;101327.38;4987121;28;20049;-51
2023/09/03 08:46:19;;;;;;;17.17;9.48;;;;;;;30.15;48.55;101333.78;4991988;28;20047;-51
2023/09/03 08:48:47;;;;;;;14.65;9.80;;;;;;;30.52;47.98;101330.47;4987631;28;20605;-51
2023/09/03 08:51:17;;;;;;;14.55;8.93;;;;;;;30.89;47.66;101327.13;4999428;28;20050;-49
2023/09/03 08:53:45;;;;;;;13.02;8.63;;;;;;;31.21;46.09;101331.19;4994711;28;20140;-52
2023/09/03 08:56:11;;;;;;;12.02;9.18;;;;;;;31.40;46.02;101330.75;4994097;28;20054;-52
2023/09/03 08:58:38;;;;;;;15.25;9.55;;;;;;;31.47;45.17;101326.69;4991935;28;20149;-51
2023/09/03 09:01:07;;;;;;;10.05;7.70;;;;;;;31.61;44.98;101335.56;5007317;28;20065;-50
2023/09/03 09:03:35;;;;;;;;;;;;;;;31.93;45.88;101335.91;5019152;28;20052;-49
2023/09/03 09:06:05;;;;;;;10.55;7.22;;;;;;;31.98;44.36;101338.22;5020539;28;20434;-48
2023/09/03 09:08:32;;;;;;;11.32;7.93;;;;;;;32.16;43.98;101327.13;5019355;28;20108;-51
2023/09/03 09:11:04;;;;;;;10.93;8.07;;;;;;;32.32;43.40;101338.38;5012130;28;20053;-50
2023/09/03 09:13:35;;;;;;;9.13;7.03;;;;;;;32.47;43.39;101340.91;5010091;28;20052;-49
2023/09/03 09:16:02;;;;;;;9.48;6.47;;;;;;;32.63;43.27;101339.75;5013551;28;20049;-50
2023/09/03 09:18:29;;;;;;;9.85;6.88;;;;;;;32.69;42.37;101334.75;5018814;28;20062;-49
2023/09/03 09:20:59;;;;;;;11.63;7.45;;;;;;;32.67;42.28;101342.09;5013887;28;20052;-50
2023/09/03 09:23:26;;;;;;;9.77;7.85;;;;;;;32.67;42.09;101334.03;5012466;28;20053;-53
2023/09/03 09:25:55;;;;;;;9.35;6.60;;;;;;;32.69;42.44;101339.28;5020407;28;20053;-55
2023/09/03 09:28:27;;;;;;;10.52;8.38;;;;;;;32.65;41.71;101343.19;5014743;28;20049;-53
2023/09/03 09:30:56;;;;;;;10.80;7.47;;;;;;;32.65;42.25;101345.88;5017642;28;20048;-50
2023/09/03 09:33:24;;;;;;;9.43;7.00;;;;;;;32.69;41.10;101350.84;5007238;28;20049;-51
2023/09/03 09:35:53;;;;;;;8.32;6.25;;;;;;;32.76;40.62;101351.22;5020570;28;20137;-49
2023/09/03 09:38:34;;;;;;;7.82;4.85;;;;;;;32.82;40.46;101345.41;5019980;28;20451;-50
2023/09/03 09:43:57;;;;;;;6.38;3.70;;;;;;;32.85;40.11;101343.47;5090301;27;20390;-50
2023/09/03 09:46:27;;;;;;;7.22;4.57;;;;;;;32.74;39.67;101346.97;5046106;28;20049;-50
2023/09/03 09:48:55;;;;;;;6.90;4.18;;;;;;;32.65;39.85;101349.38;5041893;28;20060;-53
2023/09/03 09:51:23;;;;;;;5.00;4.00;;;;;;;32.50;39.81;101356.78;5039781;28;20045;-52
2023/09/03 09:53:59;;;;;;;7.32;3.25;;;;;;;32.31;39.11;101358.13;5038962;28;20597;-52
2023/09/03 09:56:28;;;;;;;6.03;3.58;;;;;;;32.18;39.45;101351.97;5040488;28;20052;-50
2023/09/03 09:58:57;;;;;;;4.95;3.33;;;;;;;32.09;39.97;101352.66;5038616;28;20095;-49
2023/09/03 10:01:27;;;;;;;5.28;3.65;;;;;;;32.03;39.89;101349.47;5041572;28;20051;-51
2023/09/03 10:03:54;;;;;;;5.95;3.40;;;;;;;32.00;40.02;101344.34;5038220;28;20049;-52
2023/09/03 10:06:22;;;;;;;6.07;5.30;;;;;;;31.96;39.83;101352.72;5018358;28;20437;-49
2023/09/03 10:08:52;;;;;;;4.40;2.92;;;;;;;31.90;40.01;101354.00;5012991;28;20053;-50
2023/09/03 10:11:19;;;;;;;7.35;2.80;;;;;;;31.85;39.74;101353.47;5025085;28;20068;-48
2023/09/03 10:13:48;;;;;;;7.18;3.20;;;;;;;31.70;39.35;101352.78;5007333;28;20045;-48
2023/09/03 10:16:18;;;;;;;6.03;3.70;;;;;;;31.54;39.08;101354.72;5017903;28;20407;-51
2023/09/03 10:18:47;;;;;;;5.97;3.70;;;;;;;31.54;39.80;101354.72;5011673;28;20586;-52
2023/09/03 10:21:30;;;;;;;6.00;5.03;;;;;;;31.57;39.20;101358.16;5015859;28;20459;-51
2023/09/03 10:24:19;;;;;;;4.82;3.63;;;;;;;31.54;39.68;101354.72;5012798;28;20453;-51
2023/09/03 10:26:52;;;;;;;4.45;3.00;;;;;;;31.60;39.43;101352.59;5030531;28;20248;-50
2023/09/03 10:29:22;;;;;;;5.65;3.50;;;;;;;31.64;39.19;101348.72;5042621;28;20057;-49
2023/09/03 10:31:51;;;;;;;4.55;2.88;;;;;;;31.72;39.59;101357.06;5038514;28;20049;-54
2023/09/03 10:34:18;;;;;;;3.42;2.50;;;;;;;31.81;39.44;101356.38;5033574;28;20052;-51
2023/09/03 10:37:06;;;;;;;4.60;2.30;;;;;;;31.90;39.34;101354.00;5045382;28;20076;-51
2023/09/03 10:39:34;;;;;;;3.53;2.53;;;;;;;32.00;39.15;101346.16;5024220;28;20049;-46
2023/09/03 10:45:00;;;;;;;4.80;3.22;;;;;;;32.27;38.94;101356.66;5057652;28;20409;-52
2023/09/03 10:47:27;;;;;;;5.00;3.40;;;;;;;32.38;38.36;101352.31;5037547;28;20402;-47
2023/09/03 10:49:55;;;;;;;4.13;3.38;;;;;;;32.46;37.55;101355.31;5035667;28;20149;-50
2023/09/03 10:55:20;;;;;;;5.50;4.07;;;;;;;32.58;37.68;101358.88;5074761;27;20406;-52
2023/09/03 10:57:49;;;;;;;6.45;4.30;;;;;;;32.57;37.44;101355.34;5032089;28;20562;-49
2023/09/03 11:00:18;;;;;;;7.25;4.68;;;;;;;32.46;37.09;101355.31;5016476;28;20075;-52
2023/09/03 11:02:44;;;;;;;;;;;;;;;32.31;37.93;101351.91;5018443;28;20050;-54
2023/09/03 11:05:23;;;;;;;4.60;4.20;;;;;;;32.32;37.41;101353.63;5015762;28;19925;-47
2023/09/03 11:08:34;;;;;;;6.00;4.35;;;;;;;32.40;37.42;101363.75;5022671;28;20566;-52
2023/09/03 11:11:01;;;;;;;5.22;3.47;;;;;;;32.54;37.17;101352.03;5011656;28;20153;-50
2023/09/03 11:13:28;;;;;;;6.30;3.63;;;;;;;32.67;37.79;101357.31;5017302;28;20697;-51
2023/09/03 11:16:04;;;;;;;3.58;3.25;;;;;;;32.74;37.32;101350.50;5037873;28;20140;-51
2023/09/03 11:18:32;;;;;;;4.95;3.85;;;;;;;32.79;36.39;101351.00;5032573;28;20049;-50
2023/09/03 11:21:01;;;;;;;4.47;3.13;;;;;;;32.88;36.30;101353.94;5034245;28;20053;-50
2023/09/03 11:23:29;;;;;;;3.47;3.08;;;;;;;32.85;36.21;101346.16;5027530;28;20049;-48
2023/09/03 11:26:02;;;;;;;4.10;2.83;;;;;;;32.80;35.07;101352.72;5039350;28;20052;-49
2023/09/03 11:28:39;;;;;;;4.18;3.78;;;;;;;32.81;34.33;101345.50;5038068;28;20422;-49
2023/09/03 11:31:06;;;;;;;4.18;2.97;;;;;;;32.86;35.96;101347.84;5036682;28;20045;-45
2023/09/03 11:33:33;;;;;;;5.07;3.60;;;;;;;32.95;35.19;101356.03;5031957;28;20060;-48
2023/09/03 11:36:00;;;;;;;5.30;3.78;;;;;;;33.00;35.14;101347.63;5034965;28;20569;-47
2023/09/03 11:38:29;;;;;;;5.90;4.13;;;;;;;32.99;34.46;101351.28;5032826;28;20053;-51
2023/09/03 11:40:58;;;;;;;4.53;4.10;;;;;;;33.06;34.59;101347.16;5034035;28;20107;-53
2023/09/03 11:43:28;;;;;;;5.18;4.45;;;;;;;33.07;33.69;101346.19;5031945;28;20042;-53
2023/09/03 11:45:56;;;;;;;4.30;3.92;;;;;;;33.06;35.08;101341.78;5054529;28;20049;-51
2023/09/03 11:48:26;;;;;;;4.50;3.65;;;;;;;33.08;34.75;101336.31;5038830;28;20043;-54
2023/09/03 11:50:53;;;;;;;4.15;3.75;;;;;;;33.03;34.83;101343.88;5037687;28;20701;-52
2023/09/03 11:53:21;;;;;;;3.83;3.53;;;;;;;33.04;34.90;101345.59;5015518;28;20100;-48